EKYT/AAL METAR and TAF weather

Enter ICAO airport designator
Station Type Date Time Source
EKYT METAR 2020/02/20 23:20 UTC NOAA

EKYT 202320Z AUTO 27015KT 9999 FEW025/// BKN110/// 05/03 Q0996


Station Type Date Time Source
EKYT Decoded METAR 2020/02/20 23:20 UTC NOAA

Aalborg, Denmark (EKYT) 57-06N 009-51E 13M
Feb 20, 2020 - 06:20 PM EST / 2020.02.20 2320 UTC
Wind: from the W (270 degrees) at 17 MPH (15 KT):0
Visibility: greater than 7 mile(s):0
Sky conditions: mostly cloudy
Temperature: 41 F (5 C)
Dew Point: 37 F (3 C)
Relative Humidity: 86%
Pressure (altimeter): 29.41 in. Hg (0996 hPa)
ob: EKYT 202320Z AUTO 27015KT 9999 FEW025/// BKN110/// 05/03 Q0996
cycle: 23

Station Type Date Time Source
EKYT TAF 2020/02/20 21:31 UTC NOAA

TAF EKYT 202025Z 2021/2121 20018G28KT 6000 RA BKN012
BECMG 2021/2023 28014KT 9999 NSW SCT020
TEMPO 2023/2106 27018G30KT 7000 -SHRASN SCT020CB
TEMPO 2106/2115 25018G30KT
BECMG 2115/2118 23022G32KT 7000 -RADZ BKN012
TEMPO 2118/2121 4000 RADZ BR BKN008

Example: see airport list